sensor_id;sensor_type;location;lat;lon;timestamp;pressure;altitude;pressure_sealevel;temperature;humidity
70976;BME280;58635;51.198;6.010;2023-03-01T00:01:04;102847.03;;;4.67;46.84
70976;BME280;58635;51.198;6.010;2023-03-01T00:03:30;102848.06;;;4.64;47.00
70976;BME280;58635;51.198;6.010;2023-03-01T00:05:56;102845.50;;;4.64;46.57
70976;BME280;58635;51.198;6.010;2023-03-01T00:08:22;102850.72;;;4.63;46.99
70976;BME280;58635;51.198;6.010;2023-03-01T00:10:47;102848.16;;;4.63;46.76
70976;BME280;58635;51.198;6.010;2023-03-01T00:13:13;102855.03;;;4.62;46.73
70976;BME280;58635;51.198;6.010;2023-03-01T00:15:39;102855.13;;;4.61;47.16
70976;BME280;58635;51.198;6.010;2023-03-01T00:18:07;102859.53;;;4.59;47.39
70976;BME280;58635;51.198;6.010;2023-03-01T00:20:33;102860.66;;;4.55;47.21
70976;BME280;58635;51.198;6.010;2023-03-01T00:22:59;102856.38;;;4.55;47.27
70976;BME280;58635;51.198;6.010;2023-03-01T00:25:24;102856.38;;;4.55;47.18
70976;BME280;58635;51.198;6.010;2023-03-01T00:27:50;102850.41;;;4.55;47.11
70976;BME280;58635;51.198;6.010;2023-03-01T00:30:15;102847.03;;;4.54;47.21
70976;BME280;58635;51.198;6.010;2023-03-01T00:32:41;102847.97;;;4.53;47.39
70976;BME280;58635;51.198;6.010;2023-03-01T00:35:06;102847.16;;;4.53;47.66
70976;BME280;58635;51.198;6.010;2023-03-01T00:37:32;102848.06;;;4.52;47.33
70976;BME280;58635;51.198;6.010;2023-03-01T00:39:57;102837.50;;;4.44;47.78
70976;BME280;58635;51.198;6.010;2023-03-01T00:42:23;102845.69;;;4.23;48.03
70976;BME280;58635;51.198;6.010;2023-03-01T00:44:48;102839.34;;;4.16;48.54
70976;BME280;58635;51.198;6.010;2023-03-01T00:47:13;102840.53;;;4.10;48.62
70976;BME280;58635;51.198;6.010;2023-03-01T00:49:39;102834.00;;;4.06;48.47
70976;BME280;58635;51.198;6.010;2023-03-01T00:52:04;102841.78;;;4.05;48.57
70976;BME280;58635;51.198;6.010;2023-03-01T00:54:30;102839.31;;;4.03;48.85
70976;BME280;58635;51.198;6.010;2023-03-01T00:56:55;102829.16;;;4.02;48.74
70976;BME280;58635;51.198;6.010;2023-03-01T00:59:21;102827.63;;;3.99;48.71
70976;BME280;58635;51.198;6.010;2023-03-01T01:01:46;102814.22;;;3.96;49.00
70976;BME280;58635;51.198;6.010;2023-03-01T01:04:13;102825.38;;;3.95;48.98
70976;BME280;58635;51.198;6.010;2023-03-01T01:06:39;102825.59;;;3.92;48.86
70976;BME280;58635;51.198;6.010;2023-03-01T01:09:08;102818.06;;;3.89;48.82
70976;BME280;58635;51.198;6.010;2023-03-01T01:11:34;102825.03;;;3.87;49.00
70976;BME280;58635;51.198;6.010;2023-03-01T01:14:01;102821.06;;;3.83;48.98
70976;BME280;58635;51.198;6.010;2023-03-01T01:16:28;102816.97;;;3.80;49.29
70976;BME280;58635;51.198;6.010;2023-03-01T01:18:55;102814.47;;;3.78;49.30
70976;BME280;58635;51.198;6.010;2023-03-01T01:21:22;102805.25;;;3.76;49.05
70976;BME280;58635;51.198;6.010;2023-03-01T01:23:48;102808.75;;;3.75;49.14
70976;BME280;58635;51.198;6.010;2023-03-01T01:26:19;102807.19;;;3.72;49.19
70976;BME280;58635;51.198;6.010;2023-03-01T01:28:46;102807.41;;;3.69;49.59
70976;BME280;58635;51.198;6.010;2023-03-01T01:31:12;102802.41;;;3.68;49.18
70976;BME280;58635;51.198;6.010;2023-03-01T01:33:37;102799.91;;;3.66;49.72
70976;BME280;58635;51.198;6.010;2023-03-01T01:36:04;102793.25;;;3.64;49.48
70976;BME280;58635;51.198;6.010;2023-03-01T01:38:30;102785.78;;;3.61;49.47
70976;BME280;58635;51.198;6.010;2023-03-01T01:40:55;102785.06;;;3.59;49.34
70976;BME280;58635;51.198;6.010;2023-03-01T01:43:32;102777.50;;;3.57;49.33
70976;BME280;58635;51.198;6.010;2023-03-01T01:46:31;102774.28;;;3.53;49.53
70976;BME280;58635;51.198;6.010;2023-03-01T01:49:04;102771.94;;;3.50;49.56
70976;BME280;58635;51.198;6.010;2023-03-01T01:51:38;102765.28;;;3.48;49.44
70976;BME280;58635;51.198;6.010;2023-03-01T01:54:36;102766.41;;;3.44;49.44
70976;BME280;58635;51.198;6.010;2023-03-01T01:57:10;102758.91;;;3.41;49.80
70976;BME280;58635;51.198;6.010;2023-03-01T01:59:37;102763.31;;;3.39;49.74
70976;BME280;58635;51.198;6.010;2023-03-01T02:02:04;102755.84;;;3.36;49.89
70976;BME280;58635;51.198;6.010;2023-03-01T02:04:31;102764.31;;;3.36;49.75
70976;BME280;58635;51.198;6.010;2023-03-01T02:09:25;102750.00;;;3.34;49.99
70976;BME280;58635;51.198;6.010;2023-03-01T02:11:51;102741.50;;;3.33;49.67
70976;BME280;58635;51.198;6.010;2023-03-01T02:14:18;102744.06;;;3.33;49.85
70976;BME280;58635;51.198;6.010;2023-03-01T02:16:44;102745.81;;;3.33;50.28
70976;BME280;58635;51.198;6.010;2023-03-01T02:19:16;102738.31;;;3.30;50.00
70976;BME280;58635;51.198;6.010;2023-03-01T02:28:42;102741.16;;;3.25;49.80
70976;BME280;58635;51.198;6.010;2023-03-01T02:30:49;102734.53;;;3.22;50.12
70976;BME280;58635;51.198;6.010;2023-03-01T02:33:36;102738.09;;;3.20;50.33
70976;BME280;58635;51.198;6.010;2023-03-01T02:36:08;102741.53;;;3.19;50.12
70976;BME280;58635;51.198;6.010;2023-03-01T02:38:34;102738.25;;;3.17;50.34
70976;BME280;58635;51.198;6.010;2023-03-01T02:41:02;102740.81;;;3.17;50.43
70976;BME280;58635;51.198;6.010;2023-03-01T02:43:31;102747.69;;;3.16;50.44
70976;BME280;58635;51.198;6.010;2023-03-01T02:46:03;102754.53;;;3.16;50.37
70976;BME280;58635;51.198;6.010;2023-03-01T02:48:39;102742.75;;;3.13;50.21
70976;BME280;58635;51.198;6.010;2023-03-01T02:53:56;102746.25;;;3.12;50.54
70976;BME280;58635;51.198;6.010;2023-03-01T02:56:25;102745.41;;;3.12;50.45
70976;BME280;58635;51.198;6.010;2023-03-01T02:58:52;102739.69;;;3.08;50.56
70976;BME280;58635;51.198;6.010;2023-03-01T03:01:19;102738.03;;;3.07;50.64
70976;BME280;58635;51.198;6.010;2023-03-01T03:03:44;102741.59;;;3.05;50.89
70976;BME280;58635;51.198;6.010;2023-03-01T03:06:10;102732.28;;;3.04;50.76
70976;BME280;58635;51.198;6.010;2023-03-01T03:08:35;102742.50;;;3.04;50.75
70976;BME280;58635;51.198;6.010;2023-03-01T03:11:01;102739.97;;;3.04;50.81
70976;BME280;58635;51.198;6.010;2023-03-01T03:13:27;102736.59;;;3.03;50.81
70976;BME280;58635;51.198;6.010;2023-03-01T03:15:57;102743.44;;;3.03;50.94
70976;BME280;58635;51.198;6.010;2023-03-01T03:18:23;102739.25;;;3.02;51.00
70976;BME280;58635;51.198;6.010;2023-03-01T03:20:52;102741.06;;;3.00;50.93
70976;BME280;58635;51.198;6.010;2023-03-01T03:23:19;102733.41;;;3.00;50.93
70976;BME280;58635;51.198;6.010;2023-03-01T03:25:44;102736.16;;;2.97;51.01
70976;BME280;58635;51.198;6.010;2023-03-01T03:28:12;102740.47;;;2.96;50.96
70976;BME280;58635;51.198;6.010;2023-03-01T03:30:40;102733.78;;;2.93;50.99
70976;BME280;58635;51.198;6.010;2023-03-01T03:33:06;102741.53;;;2.92;51.15
70976;BME280;58635;51.198;6.010;2023-03-01T03:35:37;102746.66;;;2.92;51.18
70976;BME280;58635;51.198;6.010;2023-03-01T03:38:05;102734.78;;;2.91;51.39
70976;BME280;58635;51.198;6.010;2023-03-01T03:40:37;102739.19;;;2.89;50.85
70976;BME280;58635;51.198;6.010;2023-03-01T03:43:04;102741.03;;;2.87;51.30
70976;BME280;58635;51.198;6.010;2023-03-01T03:45:30;102736.81;;;2.86;51.20
70976;BME280;58635;51.198;6.010;2023-03-01T03:47:58;102740.38;;;2.83;51.03
70976;BME280;58635;51.198;6.010;2023-03-01T03:50:24;102741.38;;;2.81;51.19
70976;BME280;58635;51.198;6.010;2023-03-01T03:52:49;102738.00;;;2.80;51.31
70976;BME280;58635;51.198;6.010;2023-03-01T03:55:15;102738.19;;;2.77;51.16
70976;BME280;58635;51.198;6.010;2023-03-01T03:57:45;102733.28;;;2.74;51.26
70976;BME280;58635;51.198;6.010;2023-03-01T04:00:18;102737.59;;;2.74;51.20
70976;BME280;58635;51.198;6.010;2023-03-01T04:02:44;102727.44;;;2.72;51.27
70976;BME280;58635;51.198;6.010;2023-03-01T04:05:11;102722.50;;;2.69;51.22
70976;BME280;58635;51.198;6.010;2023-03-01T04:07:38;102725.06;;;2.69;51.29
70976;BME280;58635;51.198;6.010;2023-03-01T04:10:05;102717.50;;;2.68;51.44
70976;BME280;58635;51.198;6.010;2023-03-01T04:12:33;102718.31;;;2.68;51.39
70976;BME280;58635;51.198;6.010;2023-03-01T04:15:00;102711.56;;;2.67;51.30
70976;BME280;58635;51.198;6.010;2023-03-01T04:17:25;102707.38;;;2.66;51.55
70976;BME280;58635;51.198;6.010;2023-03-01T04:19:51;102698.91;;;2.66;51.65
70976;BME280;58635;51.198;6.010;2023-03-01T04:22:16;102698.09;;;2.65;51.41
70976;BME280;58635;51.198;6.010;2023-03-01T04:24:44;102702.47;;;2.63;51.61
70976;BME280;58635;51.198;6.010;2023-03-01T04:27:09;102705.19;;;2.60;51.56
70976;BME280;58635;51.198;6.010;2023-03-01T04:29:35;102696.72;;;2.59;51.76
70976;BME280;58635;51.198;6.010;2023-03-01T04:32:00;102692.50;;;2.58;51.68
70976;BME280;58635;51.198;6.010;2023-03-01T04:34:26;102692.72;;;2.55;51.66
70976;BME280;58635;51.198;6.010;2023-03-01T04:36:54;102691.06;;;2.54;51.65
70976;BME280;58635;51.198;6.010;2023-03-01T04:39:20;102692.00;;;2.53;51.64
70976;BME280;58635;51.198;6.010;2023-03-01T04:41:45;102680.13;;;2.52;51.56
70976;BME280;58635;51.198;6.010;2023-03-01T04:44:10;102678.59;;;2.50;51.72
70976;BME280;58635;51.198;6.010;2023-03-01T04:46:36;102679.50;;;2.49;51.79
70976;BME280;58635;51.198;6.010;2023-03-01T04:49:02;102679.50;;;2.49;51.79
70976;BME280;58635;51.198;6.010;2023-03-01T04:51:28;102683.88;;;2.47;51.76
70976;BME280;58635;51.198;6.010;2023-03-01T04:53:54;102681.50;;;2.44;51.88
70976;BME280;58635;51.198;6.010;2023-03-01T04:56:19;102684.88;;;2.44;51.97
70976;BME280;58635;51.198;6.010;2023-03-01T04:58:45;102673.84;;;2.44;52.05
70976;BME280;58635;51.198;6.010;2023-03-01T05:01:13;102670.56;;;2.42;51.94
70976;BME280;58635;51.198;6.010;2023-03-01T05:03:47;102669.75;;;2.41;51.95
70976;BME280;58635;51.198;6.010;2023-03-01T05:06:14;102677.41;;;2.41;52.09
70976;BME280;58635;51.198;6.010;2023-03-01T05:08:40;102682.53;;;2.41;51.81
70976;BME280;58635;51.198;6.010;2023-03-01T05:11:06;102675.88;;;2.39;52.01
70976;BME280;58635;51.198;6.010;2023-03-01T05:13:34;102673.31;;;2.39;51.96
70976;BME280;58635;51.198;6.010;2023-03-01T05:16:01;102675.97;;;2.37;52.02
70976;BME280;58635;51.198;6.010;2023-03-01T05:18:28;102683.69;;;2.35;52.18
70976;BME280;58635;51.198;6.010;2023-03-01T05:21:01;102665.94;;;2.34;52.18
70976;BME280;58635;51.198;6.010;2023-03-01T05:23:29;102669.59;;;2.30;52.27
70976;BME280;58635;51.198;6.010;2023-03-01T05:25:58;102669.69;;;2.28;52.41
70976;BME280;58635;51.198;6.010;2023-03-01T05:28:25;102674.88;;;2.27;52.25
70976;BME280;58635;51.198;6.010;2023-03-01T05:30:51;102671.50;;;2.26;52.34
70976;BME280;58635;51.198;6.010;2023-03-01T05:33:17;102670.75;;;2.24;52.35
70976;BME280;58635;51.198;6.010;2023-03-01T05:35:44;102671.59;;;2.25;52.22
70976;BME280;58635;51.198;6.010;2023-03-01T05:38:11;102670.84;;;2.23;52.41
70976;BME280;58635;51.198;6.010;2023-03-01T05:40:41;102664.94;;;2.22;52.41
70976;BME280;58635;51.198;6.010;2023-03-01T05:43:07;102664.22;;;2.20;52.39
70976;BME280;58635;51.198;6.010;2023-03-01T05:45:32;102660.94;;;2.18;52.38
70976;BME280;58635;51.198;6.010;2023-03-01T05:47:58;102658.38;;;2.18;52.44
70976;BME280;58635;51.198;6.010;2023-03-01T05:50:26;102660.13;;;2.18;52.55
70976;BME280;58635;51.198;6.010;2023-03-01T05:53:00;102660.13;;;2.18;52.47
70976;BME280;58635;51.198;6.010;2023-03-01T05:55:29;102655.94;;;2.17;52.53
70976;BME280;58635;51.198;6.010;2023-03-01T05:57:58;102652.66;;;2.15;52.50
70976;BME280;58635;51.198;6.010;2023-03-01T06:00:24;102650.25;;;2.12;52.52
70976;BME280;58635;51.198;6.010;2023-03-01T06:02:49;102648.63;;;2.11;52.52
70976;BME280;58635;51.198;6.010;2023-03-01T06:05:17;102638.50;;;2.09;52.66
70976;BME280;58635;51.198;6.010;2023-03-01T06:07:43;102649.53;;;2.10;52.59
70976;BME280;58635;51.198;6.010;2023-03-01T06:10:10;102647.91;;;2.09;52.67
70976;BME280;58635;51.198;6.010;2023-03-01T06:12:37;102646.25;;;2.08;52.67
70976;BME280;58635;51.198;6.010;2023-03-01T06:15:03;102648.81;;;2.08;52.62
70976;BME280;58635;51.198;6.010;2023-03-01T06:17:31;102653.09;;;2.07;52.75
70976;BME280;58635;51.198;6.010;2023-03-01T06:19:57;102660.75;;;2.07;52.63
70976;BME280;58635;51.198;6.010;2023-03-01T06:22:23;102665.13;;;2.05;52.71
70976;BME280;58635;51.198;6.010;2023-03-01T06:24:48;102665.13;;;2.05;52.95
70976;BME280;58635;51.198;6.010;2023-03-01T06:27:14;102662.69;;;2.03;52.80
70976;BME280;58635;51.198;6.010;2023-03-01T06:29:39;102663.59;;;2.02;52.79
70976;BME280;58635;51.198;6.010;2023-03-01T06:32:05;102662.78;;;2.02;52.95
70976;BME280;58635;51.198;6.010;2023-03-01T06:34:30;102666.16;;;2.02;52.71
70976;BME280;58635;51.198;6.010;2023-03-01T06:36:56;102672.88;;;2.03;52.61
70976;BME280;58635;51.198;6.010;2023-03-01T06:39:21;102671.25;;;2.02;52.77
70976;BME280;58635;51.198;6.010;2023-03-01T06:41:47;102663.59;;;2.02;52.70
70976;BME280;58635;51.198;6.010;2023-03-01T06:44:12;102666.06;;;2.04;52.83
70976;BME280;58635;51.198;6.010;2023-03-01T06:46:39;102666.88;;;2.04;52.85
70976;BME280;58635;51.198;6.010;2023-03-01T06:49:05;102665.97;;;2.05;52.81
70976;BME280;58635;51.198;6.010;2023-03-01T06:51:34;102671.78;;;2.08;52.87
70976;BME280;58635;51.198;6.010;2023-03-01T06:54:00;102667.41;;;2.10;52.76
70976;BME280;58635;51.198;6.010;2023-03-01T06:56:25;102664.75;;;2.11;52.81
70976;BME280;58635;51.198;6.010;2023-03-01T06:58:51;102663.78;;;2.14;52.77
70976;BME280;58635;51.198;6.010;2023-03-01T07:01:16;102664.50;;;2.16;52.74
70976;BME280;58635;51.198;6.010;2023-03-01T07:03:41;102661.03;;;2.17;52.82
70976;BME280;58635;51.198;6.010;2023-03-01T07:06:09;102664.22;;;2.20;52.61
70976;BME280;58635;51.198;6.010;2023-03-01T07:08:35;102666.56;;;2.23;52.72
70976;BME280;58635;51.198;6.010;2023-03-01T07:11:00;102663.03;;;2.26;52.63
70976;BME280;58635;51.198;6.010;2023-03-01T07:13:27;102668.78;;;2.29;52.77
70976;BME280;58635;51.198;6.010;2023-03-01T07:15:53;102668.56;;;2.32;53.03
70976;BME280;58635;51.198;6.010;2023-03-01T07:18:18;102659.09;;;2.34;52.67
70976;BME280;58635;51.198;6.010;2023-03-01T07:20:44;102669.94;;;2.38;52.77
70976;BME280;58635;51.198;6.010;2023-03-01T07:23:09;102662.19;;;2.40;52.90
70976;BME280;58635;51.198;6.010;2023-03-01T07:25:34;102662.81;;;2.43;52.72
70976;BME280;58635;51.198;6.010;2023-03-01T07:28:00;102666.09;;;2.45;52.63
70976;BME280;58635;51.198;6.010;2023-03-01T07:30:25;102664.25;;;2.47;52.70
70976;BME280;58635;51.198;6.010;2023-03-01T07:32:53;102663.28;;;2.50;52.66
70976;BME280;58635;51.198;6.010;2023-03-01T07:35:19;102662.97;;;2.54;52.74
70976;BME280;58635;51.198;6.010;2023-03-01T07:37:44;102662.78;;;2.57;52.61
70976;BME280;58635;51.198;6.010;2023-03-01T07:40:11;102656.59;;;2.61;52.72
70976;BME280;58635;51.198;6.010;2023-03-01T07:42:36;102660.69;;;2.64;52.79
70976;BME280;58635;51.198;6.010;2023-03-01T07:45:02;102661.31;;;2.68;52.70
70976;BME280;58635;51.198;6.010;2023-03-01T07:47:28;102659.34;;;2.71;52.76
70976;BME280;58635;51.198;6.010;2023-03-01T07:49:53;102652.34;;;2.75;52.53
70976;BME280;58635;51.198;6.010;2023-03-01T07:52:19;102655.63;;;2.77;52.53
70976;BME280;58635;51.198;6.010;2023-03-01T07:54:44;102654.81;;;2.76;52.60
70976;BME280;58635;51.198;6.010;2023-03-01T07:57:10;102655.53;;;2.78;52.70
70976;BME280;58635;51.198;6.010;2023-03-01T07:59:35;102655.22;;;2.83;52.60
70976;BME280;58635;51.198;6.010;2023-03-01T08:02:01;102659.13;;;2.88;52.62
70976;BME280;58635;51.198;6.010;2023-03-01T08:04:26;102657.09;;;2.93;52.44
70976;BME280;58635;51.198;6.010;2023-03-01T08:06:52;102657.91;;;2.94;52.54
70976;BME280;58635;51.198;6.010;2023-03-01T08:09:18;102658.56;;;2.98;52.51
70976;BME280;58635;51.198;6.010;2023-03-01T08:11:43;102654.88;;;3.02;52.38
70976;BME280;58635;51.198;6.010;2023-03-01T08:14:09;102653.03;;;3.04;52.38
70976;BME280;58635;51.198;6.010;2023-03-01T08:16:36;102658.69;;;3.09;52.56
70976;BME280;58635;51.198;6.010;2023-03-01T08:19:19;102662.59;;;3.14;52.17
70976;BME280;58635;51.198;6.010;2023-03-01T08:21:45;102656.34;;;3.18;52.20
70976;BME280;58635;51.198;6.010;2023-03-01T08:24:10;102653.41;;;3.25;52.25
70976;BME280;58635;51.198;6.010;2023-03-01T08:26:36;102660.06;;;3.27;52.15
70976;BME280;58635;51.198;6.010;2023-03-01T08:29:02;102657.22;;;3.32;52.21
70976;BME280;58635;51.198;6.010;2023-03-01T08:31:36;102648.41;;;3.36;52.03
70976;BME280;58635;51.198;6.010;2023-03-01T08:34:05;102641.97;;;3.43;52.00
70976;BME280;58635;51.198;6.010;2023-03-01T08:36:35;102641.69;;;3.47;51.93
70976;BME280;58635;51.198;6.010;2023-03-01T08:39:02;102638.91;;;3.50;51.77
70976;BME280;58635;51.198;6.010;2023-03-01T08:41:28;102642.28;;;3.51;51.77
70976;BME280;58635;51.198;6.010;2023-03-01T08:43:54;102629.28;;;3.54;51.45
70976;BME280;58635;51.198;6.010;2023-03-01T08:46:25;102630.63;;;3.60;51.39
70976;BME280;58635;51.198;6.010;2023-03-01T08:48:50;102632.75;;;3.66;51.38
70976;BME280;58635;51.198;6.010;2023-03-01T08:51:17;102624.56;;;3.73;51.45
70976;BME280;58635;51.198;6.010;2023-03-01T08:53:43;102635.13;;;3.81;51.31
70976;BME280;58635;51.198;6.010;2023-03-01T08:56:10;102639.63;;;3.91;50.78
70976;BME280;58635;51.198;6.010;2023-03-01T08:58:36;102630.91;;;3.93;50.78
70976;BME280;58635;51.198;6.010;2023-03-01T09:01:07;102633.25;;;3.96;50.94
70976;BME280;58635;51.198;6.010;2023-03-01T09:03:33;102627.81;;;4.01;50.76
70976;BME280;58635;51.198;6.010;2023-03-01T09:06:02;102634.38;;;4.05;50.43
70976;BME280;58635;51.198;6.010;2023-03-01T09:08:28;102625.44;;;4.10;50.36
70976;BME280;58635;51.198;6.010;2023-03-01T09:10:54;102625.97;;;4.16;50.11
70976;BME280;58635;51.198;6.010;2023-03-01T09:13:19;102622.16;;;4.21;50.03
70976;BME280;58635;51.198;6.010;2023-03-01T09:15:45;102619.19;;;4.27;50.09
70976;BME280;58635;51.198;6.010;2023-03-01T09:18:10;102621.28;;;4.33;49.67
70976;BME280;58635;51.198;6.010;2023-03-01T09:20:36;102608.88;;;4.40;49.61
70976;BME280;58635;51.198;6.010;2023-03-01T09:23:02;102605.06;;;4.46;49.49
70976;BME280;58635;51.198;6.010;2023-03-01T09:25:28;102608.78;;;4.65;49.11
70976;BME280;58635;51.198;6.010;2023-03-01T09:27:54;102605.81;;;4.83;48.69
70976;BME280;58635;51.198;6.010;2023-03-01T09:30:19;102607.00;;;4.90;48.57
70976;BME280;58635;51.198;6.010;2023-03-01T09:32:45;102603.16;;;4.95;48.70
70976;BME280;58635;51.198;6.010;2023-03-01T09:35:11;102606.13;;;5.02;48.22
70976;BME280;58635;51.198;6.010;2023-03-01T09:37:37;102604.94;;;5.06;48.55
70976;BME280;58635;51.198;6.010;2023-03-01T09:40:04;102595.06;;;5.13;48.32
70976;BME280;58635;51.198;6.010;2023-03-01T09:42:32;102603.03;;;5.21;47.81
70976;BME280;58635;51.198;6.010;2023-03-01T09:45:05;102603.38;;;5.27;47.86
70976;BME280;58635;51.198;6.010;2023-03-01T09:47:36;102598.00;;;5.31;47.57
70976;BME280;58635;51.198;6.010;2023-03-01T09:50:19;102592.66;;;5.34;47.61
70976;BME280;58635;51.198;6.010;2023-03-01T09:53:06;102589.50;;;5.41;47.67
70976;BME280;58635;51.198;6.010;2023-03-01T09:56:02;102591.38;;;5.50;47.52
70976;BME280;58635;51.198;6.010;2023-03-01T09:58:51;102590.00;;;5.57;47.38
70976;BME280;58635;51.198;6.010;2023-03-01T10:09:38;102588.34;;;5.79;46.77
70976;BME280;58635;51.198;6.010;2023-03-01T10:12:11;102581.13;;;5.84;46.40
70976;BME280;58635;51.198;6.010;2023-03-01T10:17:34;102581.84;;;5.97;46.05
70976;BME280;58635;51.198;6.010;2023-03-01T10:20:28;102575.63;;;6.00;45.96
70976;BME280;58635;51.198;6.010;2023-03-01T10:22:55;102569.22;;;6.05;46.08
70976;BME280;58635;51.198;6.010;2023-03-01T10:25:29;102557.41;;;6.14;45.98
70976;BME280;58635;51.198;6.010;2023-03-01T10:28:05;102555.16;;;6.21;45.99
70976;BME280;58635;51.198;6.010;2023-03-01T10:30:37;102554.78;;;6.25;45.71
70976;BME280;58635;51.198;6.010;2023-03-01T10:33:15;102548.63;;;6.28;45.56
70976;BME280;58635;51.198;6.010;2023-03-01T10:35:42;102546.50;;;6.33;45.40
70976;BME280;58635;51.198;6.010;2023-03-01T10:38:10;102543.41;;;6.39;45.64
70976;BME280;58635;51.198;6.010;2023-03-01T10:41:09;102533.59;;;6.44;45.24
70976;BME280;58635;51.198;6.010;2023-03-01T10:44:00;102539.03;;;6.51;45.11
70976;BME280;58635;51.198;6.010;2023-03-01T10:46:35;102537.63;;;6.58;45.12
70976;BME280;58635;51.198;6.010;2023-03-01T10:51:35;102524.72;;;6.69;44.81
70976;BME280;58635;51.198;6.010;2023-03-01T10:54:02;102521.66;;;6.75;44.79
70976;BME280;58635;51.198;6.010;2023-03-01T10:56:48;102511.78;;;6.80;44.63
70976;BME280;58635;51.198;6.010;2023-03-01T10:59:22;102507.34;;;6.82;44.70
70976;BME280;58635;51.198;6.010;2023-03-01T11:02:14;102503.47;;;6.88;44.76
70976;BME280;58635;51.198;6.010;2023-03-01T11:04:56;102499.56;;;6.93;44.67
70976;BME280;58635;51.198;6.010;2023-03-01T11:07:22;102505.84;;;7.00;43.72
70976;BME280;58635;51.198;6.010;2023-03-01T11:09:47;102490.00;;;7.05;43.21
70976;BME280;58635;51.198;6.010;2023-03-01T11:12:14;102493.84;;;7.11;42.89
70976;BME280;58635;51.198;6.010;2023-03-01T11:15:15;102499.25;;;7.17;42.42
70976;BME280;58635;51.198;6.010;2023-03-01T11:17:44;102494.56;;;7.22;42.41
70976;BME280;58635;51.198;6.010;2023-03-01T11:20:16;102485.38;;;7.29;42.19
70976;BME280;58635;51.198;6.010;2023-03-01T11:22:54;102488.47;;;7.33;41.65
70976;BME280;58635;51.198;6.010;2023-03-01T11:25:25;102484.16;;;7.33;41.40
70976;BME280;58635;51.198;6.010;2023-03-01T11:27:51;102486.22;;;7.40;41.33
70976;BME280;58635;51.198;6.010;2023-03-01T11:31:06;102487.56;;;7.44;41.09
70976;BME280;58635;51.198;6.010;2023-03-01T11:38:45;102490.03;;;7.55;41.41
70976;BME280;58635;51.198;6.010;2023-03-01T11:41:17;102487.91;;;7.60;41.31
70976;BME280;58635;51.198;6.010;2023-03-01T11:51:45;102484.13;;;7.74;40.87
70976;BME280;58635;51.198;6.010;2023-03-01T11:54:26;102481.97;;;7.79;40.77
70976;BME280;58635;51.198;6.010;2023-03-01T11:57:04;102479.53;;;7.87;40.71
70976;BME280;58635;51.198;6.010;2023-03-01T12:07:39;102467.34;;;7.99;39.89
70976;BME280;58635;51.198;6.010;2023-03-01T12:10:26;102467.06;;;8.02;39.55
70976;BME280;58635;51.198;6.010;2023-03-01T12:18:24;102457.72;;;8.30;39.22
70976;BME280;58635;51.198;6.010;2023-03-01T12:23:57;102455.28;;;8.47;39.06
70976;BME280;58635;51.198;6.010;2023-03-01T12:26:32;102448.06;;;8.51;38.79
70976;BME280;58635;51.198;6.010;2023-03-01T12:29:21;102438.03;;;8.58;38.62
70976;BME280;58635;51.198;6.010;2023-03-01T12:37:35;102417.28;;;8.87;38.63
70976;BME280;58635;51.198;6.010;2023-03-01T12:40:28;102414.25;;;9.01;38.64
70976;BME280;58635;51.198;6.010;2023-03-01T12:43:32;102410.38;;;9.15;38.51
70976;BME280;58635;51.198;6.010;2023-03-01T12:46:05;102408.69;;;9.23;38.00
70976;BME280;58635;51.198;6.010;2023-03-01T12:48:46;102408.94;;;9.30;37.98
70976;BME280;58635;51.198;6.010;2023-03-01T12:51:20;102399.38;;;9.40;37.85
70976;BME280;58635;51.198;6.010;2023-03-01T12:53:50;102399.88;;;9.44;37.66
70976;BME280;58635;51.198;6.010;2023-03-01T12:56:19;102396.72;;;9.50;37.77
70976;BME280;58635;51.198;6.010;2023-03-01T12:58:51;102384.97;;;9.55;37.54
70976;BME280;58635;51.198;6.010;2023-03-01T13:12:50;102379.28;;;9.70;36.47
70976;BME280;58635;51.198;6.010;2023-03-01T13:15:36;102373.53;;;9.76;36.00
70976;BME280;58635;51.198;6.010;2023-03-01T13:18:49;102368.22;;;9.77;35.79
70976;BME280;58635;51.198;6.010;2023-03-01T13:20:55;102373.09;;;9.80;35.89
70976;BME280;58635;51.198;6.010;2023-03-01T13:28:36;102370.34;;;10.00;35.14
70976;BME280;58635;51.198;6.010;2023-03-01T13:31:07;102370.50;;;9.98;35.04
70976;BME280;58635;51.198;6.010;2023-03-01T13:33:40;102363.41;;;10.00;35.31
70976;BME280;58635;51.198;6.010;2023-03-01T13:36:06;102358.28;;;10.08;35.40
70976;BME280;58635;51.198;6.010;2023-03-01T13:39:02;102349.75;;;10.16;35.36
70976;BME280;58635;51.198;6.010;2023-03-01T13:46:47;102332.09;;;10.29;35.38
70976;BME280;58635;51.198;6.010;2023-03-01T13:49:18;102325.50;;;10.35;35.30
70976;BME280;58635;51.198;6.010;2023-03-01T13:51:49;102330.53;;;10.36;35.17
70976;BME280;58635;51.198;6.010;2023-03-01T13:54:25;102328.78;;;10.19;35.39
70976;BME280;58635;51.198;6.010;2023-03-01T13:56:51;102327.47;;;10.15;35.33
70976;BME280;58635;51.198;6.010;2023-03-01T13:59:20;102321.91;;;10.28;35.18
70976;BME280;58635;51.198;6.010;2023-03-01T14:01:55;102324.69;;;10.34;35.13
70976;BME280;58635;51.198;6.010;2023-03-01T14:06:46;102318.75;;;10.42;35.42
70976;BME280;58635;51.198;6.010;2023-03-01T14:09:21;102305.34;;;10.46;35.27
70976;BME280;58635;51.198;6.010;2023-03-01T14:14:45;102301.03;;;10.55;35.37
70976;BME280;58635;51.198;6.010;2023-03-01T14:17:52;102302.44;;;10.49;34.97
70976;BME280;58635;51.198;6.010;2023-03-01T14:20:30;102302.22;;;10.35;35.19
70976;BME280;58635;51.198;6.010;2023-03-01T14:22:59;102302.19;;;10.27;34.71
70976;BME280;58635;51.198;6.010;2023-03-01T14:25:32;102289.84;;;10.20;35.09
70976;BME280;58635;51.198;6.010;2023-03-01T14:28:11;102293.78;;;10.24;35.34
70976;BME280;58635;51.198;6.010;2023-03-01T14:30:43;102288.13;;;10.29;35.37
70976;BME280;58635;51.198;6.010;2023-03-01T14:38:28;102286.75;;;10.43;35.11
70976;BME280;58635;51.198;6.010;2023-03-01T14:40:59;102279.75;;;10.35;34.79
70976;BME280;58635;51.198;6.010;2023-03-01T14:43:27;102277.66;;;10.31;35.34
70976;BME280;58635;51.198;6.010;2023-03-01T14:45:54;102277.13;;;10.27;34.83